sensor_id;sensor_type;location;lat;lon;timestamp;P1;durP1;ratioP1;P2;durP2;ratioP2
69754;SDS011;57023;52.218;5.158;2023-06-22T00:01:08;8.13;;;5.85;;
69754;SDS011;57023;52.218;5.158;2023-06-22T00:03:33;8.02;;;6.10;;
69754;SDS011;57023;52.218;5.158;2023-06-22T00:05:58;9.75;;;6.93;;
69754;SDS011;57023;52.218;5.158;2023-06-22T00:08:24;12.48;;;6.93;;
69754;SDS011;57023;52.218;5.158;2023-06-22T00:10:49;10.38;;;7.05;;
69754;SDS011;57023;52.218;5.158;2023-06-22T00:13:14;9.23;;;6.70;;
69754;SDS011;57023;52.218;5.158;2023-06-22T00:15:41;10.45;;;7.25;;
69754;SDS011;57023;52.218;5.158;2023-06-22T00:18:07;12.80;;;8.57;;
69754;SDS011;57023;52.218;5.158;2023-06-22T00:20:33;12.32;;;8.73;;
69754;SDS011;57023;52.218;5.158;2023-06-22T00:22:59;13.45;;;8.93;;
69754;SDS011;57023;52.218;5.158;2023-06-22T00:25:25;11.75;;;8.70;;
69754;SDS011;57023;52.218;5.158;2023-06-22T00:27:50;13.32;;;9.20;;
69754;SDS011;57023;52.218;5.158;2023-06-22T00:30:16;11.50;;;8.60;;
69754;SDS011;57023;52.218;5.158;2023-06-22T00:32:43;15.20;;;9.10;;
69754;SDS011;57023;52.218;5.158;2023-06-22T00:35:08;12.57;;;8.23;;
69754;SDS011;57023;52.218;5.158;2023-06-22T00:37:35;12.47;;;8.37;;
69754;SDS011;57023;52.218;5.158;2023-06-22T00:40:01;15.32;;;9.13;;
69754;SDS011;57023;52.218;5.158;2023-06-22T00:42:26;12.43;;;8.77;;
69754;SDS011;57023;52.218;5.158;2023-06-22T00:44:51;12.85;;;8.70;;
69754;SDS011;57023;52.218;5.158;2023-06-22T00:47:17;13.57;;;9.00;;
69754;SDS011;57023;52.218;5.158;2023-06-22T00:49:43;13.48;;;9.07;;
69754;SDS011;57023;52.218;5.158;2023-06-22T00:52:08;12.65;;;9.07;;
69754;SDS011;57023;52.218;5.158;2023-06-22T00:54:39;13.85;;;8.98;;
69754;SDS011;57023;52.218;5.158;2023-06-22T00:57:11;13.55;;;9.40;;
69754;SDS011;57023;52.218;5.158;2023-06-22T00:59:37;13.13;;;9.02;;
69754;SDS011;57023;52.218;5.158;2023-06-22T01:02:04;14.90;;;9.30;;
69754;SDS011;57023;52.218;5.158;2023-06-22T01:04:35;14.95;;;9.30;;
69754;SDS011;57023;52.218;5.158;2023-06-22T01:09:40;12.43;;;9.02;;
69754;SDS011;57023;52.218;5.158;2023-06-22T01:12:10;12.50;;;8.93;;
69754;SDS011;57023;52.218;5.158;2023-06-22T01:14:38;15.55;;;10.38;;
69754;SDS011;57023;52.218;5.158;2023-06-22T01:17:07;13.48;;;9.55;;
69754;SDS011;57023;52.218;5.158;2023-06-22T01:19:41;15.93;;;9.80;;
69754;SDS011;57023;52.218;5.158;2023-06-22T01:22:12;13.35;;;9.52;;
69754;SDS011;57023;52.218;5.158;2023-06-22T01:27:47;13.65;;;9.45;;
69754;SDS011;57023;52.218;5.158;2023-06-22T01:30:37;16.40;;;9.23;;
69754;SDS011;57023;52.218;5.158;2023-06-22T01:33:04;17.35;;;10.43;;
69754;SDS011;57023;52.218;5.158;2023-06-22T01:35:30;17.13;;;10.32;;
69754;SDS011;57023;52.218;5.158;2023-06-22T01:37:56;15.65;;;10.98;;
69754;SDS011;57023;52.218;5.158;2023-06-22T01:40:21;13.65;;;10.00;;
69754;SDS011;57023;52.218;5.158;2023-06-22T01:42:47;15.40;;;10.90;;
69754;SDS011;57023;52.218;5.158;2023-06-22T01:45:13;15.98;;;10.95;;
69754;SDS011;57023;52.218;5.158;2023-06-22T01:47:39;18.48;;;10.77;;
69754;SDS011;57023;52.218;5.158;2023-06-22T01:50:05;16.52;;;11.45;;
69754;SDS011;57023;52.218;5.158;2023-06-22T01:52:31;16.52;;;11.23;;
69754;SDS011;57023;52.218;5.158;2023-06-22T01:54:58;17.15;;;11.68;;
69754;SDS011;57023;52.218;5.158;2023-06-22T01:57:24;17.75;;;11.70;;
69754;SDS011;57023;52.218;5.158;2023-06-22T02:02:24;17.08;;;12.18;;
69754;SDS011;57023;52.218;5.158;2023-06-22T02:04:56;17.27;;;11.38;;
69754;SDS011;57023;52.218;5.158;2023-06-22T02:07:24;18.73;;;12.40;;
69754;SDS011;57023;52.218;5.158;2023-06-22T02:09:54;18.00;;;12.32;;
69754;SDS011;57023;52.218;5.158;2023-06-22T02:12:21;17.80;;;13.05;;
69754;SDS011;57023;52.218;5.158;2023-06-22T02:14:48;18.73;;;12.43;;
69754;SDS011;57023;52.218;5.158;2023-06-22T02:17:13;19.67;;;14.05;;
69754;SDS011;57023;52.218;5.158;2023-06-22T02:19:42;22.05;;;13.98;;
69754;SDS011;57023;52.218;5.158;2023-06-22T02:22:07;21.50;;;13.73;;
69754;SDS011;57023;52.218;5.158;2023-06-22T02:24:32;18.70;;;12.85;;
69754;SDS011;57023;52.218;5.158;2023-06-22T02:26:58;20.02;;;12.85;;
69754;SDS011;57023;52.218;5.158;2023-06-22T02:29:27;21.10;;;13.07;;
69754;SDS011;57023;52.218;5.158;2023-06-22T02:31:53;18.02;;;13.15;;
69754;SDS011;57023;52.218;5.158;2023-06-22T02:34:19;19.85;;;14.18;;
69754;SDS011;57023;52.218;5.158;2023-06-22T02:36:46;19.40;;;13.90;;
69754;SDS011;57023;52.218;5.158;2023-06-22T02:39:16;22.27;;;14.43;;
69754;SDS011;57023;52.218;5.158;2023-06-22T02:41:52;19.77;;;13.05;;
69754;SDS011;57023;52.218;5.158;2023-06-22T02:44:18;22.50;;;14.85;;
69754;SDS011;57023;52.218;5.158;2023-06-22T02:46:44;20.15;;;14.07;;
69754;SDS011;57023;52.218;5.158;2023-06-22T02:49:10;20.80;;;14.40;;
69754;SDS011;57023;52.218;5.158;2023-06-22T02:51:37;20.38;;;14.02;;
69754;SDS011;57023;52.218;5.158;2023-06-22T02:54:04;23.70;;;14.10;;
69754;SDS011;57023;52.218;5.158;2023-06-22T02:56:30;23.05;;;13.32;;
69754;SDS011;57023;52.218;5.158;2023-06-22T02:58:55;22.58;;;14.68;;
69754;SDS011;57023;52.218;5.158;2023-06-22T03:01:25;22.60;;;14.05;;
69754;SDS011;57023;52.218;5.158;2023-06-22T03:03:53;21.42;;;14.15;;
69754;SDS011;57023;52.218;5.158;2023-06-22T03:06:19;21.13;;;14.30;;
69754;SDS011;57023;52.218;5.158;2023-06-22T03:08:48;20.92;;;14.02;;
69754;SDS011;57023;52.218;5.158;2023-06-22T03:11:15;19.75;;;14.55;;
69754;SDS011;57023;52.218;5.158;2023-06-22T03:13:41;19.73;;;14.15;;
69754;SDS011;57023;52.218;5.158;2023-06-22T03:16:06;22.95;;;14.98;;
69754;SDS011;57023;52.218;5.158;2023-06-22T03:18:31;20.65;;;14.25;;
69754;SDS011;57023;52.218;5.158;2023-06-22T03:20:57;23.10;;;14.80;;
69754;SDS011;57023;52.218;5.158;2023-06-22T03:23:22;23.48;;;14.15;;
69754;SDS011;57023;52.218;5.158;2023-06-22T03:25:47;24.67;;;15.40;;
69754;SDS011;57023;52.218;5.158;2023-06-22T03:28:13;24.90;;;14.70;;
69754;SDS011;57023;52.218;5.158;2023-06-22T03:30:38;22.65;;;14.93;;
69754;SDS011;57023;52.218;5.158;2023-06-22T03:33:03;21.38;;;14.57;;
69754;SDS011;57023;52.218;5.158;2023-06-22T03:35:29;22.63;;;15.25;;
69754;SDS011;57023;52.218;5.158;2023-06-22T03:37:54;24.38;;;14.27;;
69754;SDS011;57023;52.218;5.158;2023-06-22T03:40:19;21.15;;;13.93;;
69754;SDS011;57023;52.218;5.158;2023-06-22T03:42:45;20.80;;;14.55;;
69754;SDS011;57023;52.218;5.158;2023-06-22T03:45:11;21.95;;;14.55;;
69754;SDS011;57023;52.218;5.158;2023-06-22T03:47:36;21.75;;;14.30;;
69754;SDS011;57023;52.218;5.158;2023-06-22T03:50:01;20.98;;;15.15;;
69754;SDS011;57023;52.218;5.158;2023-06-22T03:52:28;24.20;;;15.32;;
69754;SDS011;57023;52.218;5.158;2023-06-22T03:54:54;24.90;;;16.25;;
69754;SDS011;57023;52.218;5.158;2023-06-22T03:57:19;21.85;;;15.65;;
69754;SDS011;57023;52.218;5.158;2023-06-22T03:59:45;23.63;;;16.25;;
69754;SDS011;57023;52.218;5.158;2023-06-22T04:02:10;27.00;;;16.77;;
69754;SDS011;57023;52.218;5.158;2023-06-22T04:04:35;24.30;;;16.92;;
69754;SDS011;57023;52.218;5.158;2023-06-22T04:07:01;24.55;;;17.10;;
69754;SDS011;57023;52.218;5.158;2023-06-22T04:09:26;26.30;;;17.05;;
69754;SDS011;57023;52.218;5.158;2023-06-22T04:11:51;26.55;;;17.55;;
69754;SDS011;57023;52.218;5.158;2023-06-22T04:14:17;31.02;;;19.70;;
69754;SDS011;57023;52.218;5.158;2023-06-22T04:16:42;29.05;;;18.48;;
69754;SDS011;57023;52.218;5.158;2023-06-22T04:19:07;27.23;;;18.77;;
69754;SDS011;57023;52.218;5.158;2023-06-22T04:21:38;27.55;;;18.58;;
69754;SDS011;57023;52.218;5.158;2023-06-22T04:24:04;26.75;;;18.38;;
69754;SDS011;57023;52.218;5.158;2023-06-22T04:26:29;27.58;;;17.85;;
69754;SDS011;57023;52.218;5.158;2023-06-22T04:28:55;27.95;;;18.63;;
69754;SDS011;57023;52.218;5.158;2023-06-22T04:31:20;26.92;;;17.95;;
69754;SDS011;57023;52.218;5.158;2023-06-22T04:33:46;29.52;;;18.85;;
69754;SDS011;57023;52.218;5.158;2023-06-22T04:36:11;29.92;;;18.63;;
69754;SDS011;57023;52.218;5.158;2023-06-22T04:38:39;28.45;;;18.00;;
69754;SDS011;57023;52.218;5.158;2023-06-22T04:41:05;30.52;;;19.80;;
69754;SDS011;57023;52.218;5.158;2023-06-22T04:43:33;30.80;;;19.55;;
69754;SDS011;57023;52.218;5.158;2023-06-22T04:45:59;28.52;;;19.58;;
69754;SDS011;57023;52.218;5.158;2023-06-22T04:48:28;32.45;;;20.15;;
69754;SDS011;57023;52.218;5.158;2023-06-22T04:50:59;32.05;;;19.77;;
69754;SDS011;57023;52.218;5.158;2023-06-22T04:53:28;27.40;;;19.20;;
69754;SDS011;57023;52.218;5.158;2023-06-22T04:55:54;29.65;;;19.75;;
69754;SDS011;57023;52.218;5.158;2023-06-22T04:58:20;29.83;;;20.33;;
69754;SDS011;57023;52.218;5.158;2023-06-22T05:00:46;28.25;;;19.45;;
69754;SDS011;57023;52.218;5.158;2023-06-22T05:03:12;34.25;;;21.27;;
69754;SDS011;57023;52.218;5.158;2023-06-22T05:05:37;29.00;;;19.83;;
69754;SDS011;57023;52.218;5.158;2023-06-22T05:08:03;32.83;;;20.63;;
69754;SDS011;57023;52.218;5.158;2023-06-22T05:10:31;31.70;;;21.05;;
69754;SDS011;57023;52.218;5.158;2023-06-22T05:12:57;31.60;;;21.20;;
69754;SDS011;57023;52.218;5.158;2023-06-22T05:15:23;31.27;;;21.33;;
69754;SDS011;57023;52.218;5.158;2023-06-22T05:17:51;32.28;;;20.83;;
69754;SDS011;57023;52.218;5.158;2023-06-22T05:20:17;31.02;;;20.80;;
69754;SDS011;57023;52.218;5.158;2023-06-22T05:22:43;34.17;;;22.95;;
69754;SDS011;57023;52.218;5.158;2023-06-22T05:25:09;30.65;;;21.10;;
69754;SDS011;57023;52.218;5.158;2023-06-22T05:27:36;35.60;;;22.92;;
69754;SDS011;57023;52.218;5.158;2023-06-22T05:30:05;34.13;;;23.13;;
69754;SDS011;57023;52.218;5.158;2023-06-22T05:32:31;34.90;;;23.10;;
69754;SDS011;57023;52.218;5.158;2023-06-22T05:34:57;36.95;;;24.17;;
69754;SDS011;57023;52.218;5.158;2023-06-22T05:37:22;34.22;;;24.98;;
69754;SDS011;57023;52.218;5.158;2023-06-22T05:39:47;35.10;;;24.05;;
69754;SDS011;57023;52.218;5.158;2023-06-22T05:42:13;34.05;;;24.25;;
69754;SDS011;57023;52.218;5.158;2023-06-22T05:44:38;36.45;;;25.50;;
69754;SDS011;57023;52.218;5.158;2023-06-22T05:47:05;36.97;;;25.77;;
69754;SDS011;57023;52.218;5.158;2023-06-22T05:49:31;36.83;;;26.00;;
69754;SDS011;57023;52.218;5.158;2023-06-22T05:51:57;39.05;;;27.48;;
69754;SDS011;57023;52.218;5.158;2023-06-22T05:54:23;35.40;;;25.92;;
69754;SDS011;57023;52.218;5.158;2023-06-22T05:56:48;35.15;;;25.98;;
69754;SDS011;57023;52.218;5.158;2023-06-22T05:59:14;39.05;;;26.45;;
69754;SDS011;57023;52.218;5.158;2023-06-22T06:01:39;38.92;;;28.08;;
69754;SDS011;57023;52.218;5.158;2023-06-22T06:04:05;36.47;;;26.77;;
69754;SDS011;57023;52.218;5.158;2023-06-22T06:06:33;40.05;;;26.50;;
69754;SDS011;57023;52.218;5.158;2023-06-22T06:08:59;40.20;;;28.45;;
69754;SDS011;57023;52.218;5.158;2023-06-22T06:11:25;34.53;;;25.80;;
69754;SDS011;57023;52.218;5.158;2023-06-22T06:13:51;35.45;;;26.10;;
69754;SDS011;57023;52.218;5.158;2023-06-22T06:16:16;35.85;;;26.42;;
69754;SDS011;57023;52.218;5.158;2023-06-22T06:18:41;33.22;;;26.85;;
69754;SDS011;57023;52.218;5.158;2023-06-22T06:21:07;34.67;;;25.90;;
69754;SDS011;57023;52.218;5.158;2023-06-22T06:23:32;33.30;;;25.77;;
69754;SDS011;57023;52.218;5.158;2023-06-22T06:25:57;31.40;;;24.67;;
69754;SDS011;57023;52.218;5.158;2023-06-22T06:28:24;31.50;;;23.75;;
69754;SDS011;57023;52.218;5.158;2023-06-22T06:33:16;29.20;;;22.90;;
69754;SDS011;57023;52.218;5.158;2023-06-22T06:35:42;32.97;;;24.83;;
69754;SDS011;57023;52.218;5.158;2023-06-22T06:38:07;31.95;;;23.55;;
69754;SDS011;57023;52.218;5.158;2023-06-22T06:40:33;30.90;;;23.65;;
69754;SDS011;57023;52.218;5.158;2023-06-22T06:42:58;29.05;;;23.50;;
69754;SDS011;57023;52.218;5.158;2023-06-22T06:45:23;31.02;;;23.33;;
69754;SDS011;57023;52.218;5.158;2023-06-22T06:47:49;29.02;;;22.60;;
69754;SDS011;57023;52.218;5.158;2023-06-22T06:50:16;29.15;;;23.67;;
69754;SDS011;57023;52.218;5.158;2023-06-22T06:52:41;31.05;;;22.70;;
69754;SDS011;57023;52.218;5.158;2023-06-22T06:55:07;28.20;;;21.77;;
69754;SDS011;57023;52.218;5.158;2023-06-22T06:57:36;26.65;;;21.98;;
69754;SDS011;57023;52.218;5.158;2023-06-22T07:00:02;27.47;;;22.70;;
69754;SDS011;57023;52.218;5.158;2023-06-22T07:02:34;27.55;;;23.13;;
69754;SDS011;57023;52.218;5.158;2023-06-22T07:04:59;26.77;;;22.17;;
69754;SDS011;57023;52.218;5.158;2023-06-22T07:07:24;27.33;;;22.20;;
69754;SDS011;57023;52.218;5.158;2023-06-22T07:09:50;28.05;;;21.70;;
69754;SDS011;57023;52.218;5.158;2023-06-22T07:12:15;26.57;;;20.63;;
69754;SDS011;57023;52.218;5.158;2023-06-22T07:14:40;24.45;;;19.80;;
69754;SDS011;57023;52.218;5.158;2023-06-22T07:17:06;26.07;;;20.20;;
69754;SDS011;57023;52.218;5.158;2023-06-22T07:19:32;26.13;;;20.60;;
69754;SDS011;57023;52.218;5.158;2023-06-22T07:21:58;26.02;;;19.33;;
69754;SDS011;57023;52.218;5.158;2023-06-22T07:24:23;24.15;;;18.45;;
69754;SDS011;57023;52.218;5.158;2023-06-22T07:26:49;25.13;;;19.93;;
69754;SDS011;57023;52.218;5.158;2023-06-22T07:29:18;24.33;;;19.05;;
69754;SDS011;57023;52.218;5.158;2023-06-22T07:31:45;23.92;;;19.73;;
69754;SDS011;57023;52.218;5.158;2023-06-22T07:34:11;23.60;;;19.93;;
69754;SDS011;57023;52.218;5.158;2023-06-22T07:36:36;26.90;;;21.30;;
69754;SDS011;57023;52.218;5.158;2023-06-22T07:39:02;23.33;;;19.87;;
69754;SDS011;57023;52.218;5.158;2023-06-22T07:41:28;24.83;;;19.77;;
69754;SDS011;57023;52.218;5.158;2023-06-22T07:43:54;26.27;;;20.33;;
69754;SDS011;57023;52.218;5.158;2023-06-22T07:46:19;24.97;;;20.60;;
69754;SDS011;57023;52.218;5.158;2023-06-22T07:48:45;23.23;;;18.43;;
69754;SDS011;57023;52.218;5.158;2023-06-22T07:51:10;23.20;;;19.50;;
69754;SDS011;57023;52.218;5.158;2023-06-22T07:53:39;23.58;;;19.70;;
69754;SDS011;57023;52.218;5.158;2023-06-22T07:56:05;23.60;;;19.58;;
69754;SDS011;57023;52.218;5.158;2023-06-22T07:58:32;23.77;;;19.10;;
69754;SDS011;57023;52.218;5.158;2023-06-22T08:00:57;20.43;;;18.23;;
69754;SDS011;57023;52.218;5.158;2023-06-22T08:03:23;23.83;;;19.57;;
69754;SDS011;57023;52.218;5.158;2023-06-22T08:05:48;22.50;;;19.13;;
69754;SDS011;57023;52.218;5.158;2023-06-22T08:08:14;22.07;;;19.10;;
69754;SDS011;57023;52.218;5.158;2023-06-22T08:10:39;21.87;;;19.13;;
69754;SDS011;57023;52.218;5.158;2023-06-22T08:13:04;22.17;;;18.03;;
69754;SDS011;57023;52.218;5.158;2023-06-22T08:15:30;21.60;;;17.47;;
69754;SDS011;57023;52.218;5.158;2023-06-22T08:17:55;20.03;;;17.17;;
69754;SDS011;57023;52.218;5.158;2023-06-22T08:20:20;18.50;;;16.20;;
69754;SDS011;57023;52.218;5.158;2023-06-22T08:22:47;18.58;;;16.40;;
69754;SDS011;57023;52.218;5.158;2023-06-22T08:25:12;23.17;;;18.70;;
69754;SDS011;57023;52.218;5.158;2023-06-22T08:27:38;18.87;;;16.13;;
69754;SDS011;57023;52.218;5.158;2023-06-22T08:30:04;18.67;;;16.03;;
69754;SDS011;57023;52.218;5.158;2023-06-22T08:32:29;20.38;;;16.55;;
69754;SDS011;57023;52.218;5.158;2023-06-22T08:34:55;20.73;;;17.07;;
69754;SDS011;57023;52.218;5.158;2023-06-22T08:37:21;19.30;;;17.13;;
69754;SDS011;57023;52.218;5.158;2023-06-22T08:39:56;17.70;;;15.77;;
69754;SDS011;57023;52.218;5.158;2023-06-22T08:42:22;17.35;;;15.35;;
69754;SDS011;57023;52.218;5.158;2023-06-22T08:44:49;17.40;;;15.40;;
69754;SDS011;57023;52.218;5.158;2023-06-22T08:47:14;15.97;;;13.97;;
69754;SDS011;57023;52.218;5.158;2023-06-22T08:49:39;17.70;;;15.37;;
69754;SDS011;57023;52.218;5.158;2023-06-22T08:52:05;17.07;;;14.53;;
69754;SDS011;57023;52.218;5.158;2023-06-22T08:54:30;16.33;;;14.60;;
69754;SDS011;57023;52.218;5.158;2023-06-22T08:56:58;16.42;;;13.63;;
69754;SDS011;57023;52.218;5.158;2023-06-22T08:59:23;14.97;;;12.83;;
69754;SDS011;57023;52.218;5.158;2023-06-22T09:01:48;14.77;;;12.23;;
69754;SDS011;57023;52.218;5.158;2023-06-22T09:04:14;13.60;;;11.87;;
69754;SDS011;57023;52.218;5.158;2023-06-22T09:06:40;14.48;;;11.55;;
69754;SDS011;57023;52.218;5.158;2023-06-22T09:09:10;14.25;;;12.05;;
69754;SDS011;57023;52.218;5.158;2023-06-22T09:11:36;15.40;;;13.80;;
69754;SDS011;57023;52.218;5.158;2023-06-22T09:14:02;15.60;;;13.27;;
69754;SDS011;57023;52.218;5.158;2023-06-22T09:16:28;13.68;;;11.95;;
69754;SDS011;57023;52.218;5.158;2023-06-22T09:18:54;14.67;;;11.13;;
69754;SDS011;57023;52.218;5.158;2023-06-22T09:21:19;12.90;;;10.50;;
69754;SDS011;57023;52.218;5.158;2023-06-22T09:23:44;10.93;;;9.43;;
69754;SDS011;57023;52.218;5.158;2023-06-22T09:26:11;10.73;;;8.95;;
69754;SDS011;57023;52.218;5.158;2023-06-22T09:28:37;10.48;;;8.63;;
69754;SDS011;57023;52.218;5.158;2023-06-22T09:31:02;8.50;;;7.50;;
69754;SDS011;57023;52.218;5.158;2023-06-22T09:33:28;9.33;;;7.07;;
69754;SDS011;57023;52.218;5.158;2023-06-22T09:35:53;8.83;;;7.17;;
69754;SDS011;57023;52.218;5.158;2023-06-22T09:38:19;12.17;;;9.13;;
69754;SDS011;57023;52.218;5.158;2023-06-22T09:40:44;11.07;;;8.97;;
69754;SDS011;57023;52.218;5.158;2023-06-22T09:43:09;8.97;;;7.07;;
69754;SDS011;57023;52.218;5.158;2023-06-22T09:45:35;11.87;;;7.53;;
69754;SDS011;57023;52.218;5.158;2023-06-22T09:48:00;10.53;;;8.33;;
69754;SDS011;57023;52.218;5.158;2023-06-22T09:50:25;10.03;;;7.13;;
69754;SDS011;57023;52.218;5.158;2023-06-22T09:52:51;8.90;;;7.10;;
69754;SDS011;57023;52.218;5.158;2023-06-22T09:55:20;9.95;;;7.10;;
69754;SDS011;57023;52.218;5.158;2023-06-22T09:57:45;9.38;;;7.00;;
69754;SDS011;57023;52.218;5.158;2023-06-22T10:00:11;9.50;;;7.27;;
69754;SDS011;57023;52.218;5.158;2023-06-22T10:02:38;13.30;;;7.28;;
69754;SDS011;57023;52.218;5.158;2023-06-22T10:05:04;15.32;;;8.20;;
69754;SDS011;57023;52.218;5.158;2023-06-22T10:07:29;12.40;;;7.10;;
69754;SDS011;57023;52.218;5.158;2023-06-22T10:09:55;11.63;;;6.83;;
69754;SDS011;57023;52.218;5.158;2023-06-22T10:12:20;8.13;;;5.67;;
69754;SDS011;57023;52.218;5.158;2023-06-22T10:14:45;9.17;;;6.90;;
69754;SDS011;57023;52.218;5.158;2023-06-22T10:17:11;12.47;;;7.37;;
69754;SDS011;57023;52.218;5.158;2023-06-22T10:19:36;11.47;;;8.90;;
69754;SDS011;57023;52.218;5.158;2023-06-22T10:22:03;10.17;;;7.93;;
69754;SDS011;57023;52.218;5.158;2023-06-22T10:24:29;10.07;;;6.75;;
69754;SDS011;57023;52.218;5.158;2023-06-22T10:26:54;10.07;;;7.80;;
69754;SDS011;57023;52.218;5.158;2023-06-22T10:29:20;9.93;;;7.80;;
69754;SDS011;57023;52.218;5.158;2023-06-22T10:31:45;11.20;;;6.83;;
69754;SDS011;57023;52.218;5.158;2023-06-22T10:34:10;11.20;;;7.53;;
69754;SDS011;57023;52.218;5.158;2023-06-22T10:36:36;8.53;;;6.57;;
69754;SDS011;57023;52.218;5.158;2023-06-22T10:39:01;9.87;;;6.60;;
69754;SDS011;57023;52.218;5.158;2023-06-22T10:41:27;10.32;;;6.53;;
69754;SDS011;57023;52.218;5.158;2023-06-22T10:43:55;12.18;;;8.20;;
69754;SDS011;57023;52.218;5.158;2023-06-22T10:46:20;9.63;;;6.47;;
69754;SDS011;57023;52.218;5.158;2023-06-22T10:48:46;10.47;;;6.27;;
69754;SDS011;57023;52.218;5.158;2023-06-22T10:51:11;9.73;;;7.00;;
69754;SDS011;57023;52.218;5.158;2023-06-22T10:53:36;10.63;;;7.60;;
69754;SDS011;57023;52.218;5.158;2023-06-22T10:56:01;12.00;;;8.80;;
69754;SDS011;57023;52.218;5.158;2023-06-22T10:58:27;12.53;;;7.60;;
69754;SDS011;57023;52.218;5.158;2023-06-22T11:00:52;11.17;;;6.93;;
69754;SDS011;57023;52.218;5.158;2023-06-22T11:03:17;10.30;;;7.70;;
69754;SDS011;57023;52.218;5.158;2023-06-22T11:05:43;11.13;;;7.63;;
69754;SDS011;57023;52.218;5.158;2023-06-22T11:08:08;10.37;;;7.30;;
69754;SDS011;57023;52.218;5.158;2023-06-22T11:10:34;8.93;;;7.07;;
69754;SDS011;57023;52.218;5.158;2023-06-22T11:12:59;10.23;;;6.83;;
69754;SDS011;57023;52.218;5.158;2023-06-22T11:15:25;9.30;;;6.50;;
69754;SDS011;57023;52.218;5.158;2023-06-22T11:17:50;9.60;;;6.83;;
69754;SDS011;57023;52.218;5.158;2023-06-22T11:20:15;8.53;;;7.07;;
69754;SDS011;57023;52.218;5.158;2023-06-22T11:22:41;9.70;;;7.00;;
69754;SDS011;57023;52.218;5.158;2023-06-22T11:25:06;9.97;;;7.03;;
69754;SDS011;57023;52.218;5.158;2023-06-22T11:27:32;9.23;;;6.90;;
69754;SDS011;57023;52.218;5.158;2023-06-22T11:29:57;10.37;;;7.27;;
69754;SDS011;57023;52.218;5.158;2023-06-22T11:32:23;9.43;;;7.47;;
69754;SDS011;57023;52.218;5.158;2023-06-22T11:34:49;12.43;;;7.47;;
69754;SDS011;57023;52.218;5.158;2023-06-22T11:37:14;9.90;;;7.23;;
69754;SDS011;57023;52.218;5.158;2023-06-22T11:39:40;11.70;;;8.23;;
69754;SDS011;57023;52.218;5.158;2023-06-22T11:42:05;13.03;;;8.20;;
69754;SDS011;57023;52.218;5.158;2023-06-22T11:44:31;9.70;;;7.60;;
69754;SDS011;57023;52.218;5.158;2023-06-22T11:46:56;9.93;;;7.70;;
69754;SDS011;57023;52.218;5.158;2023-06-22T11:49:22;9.57;;;7.33;;
69754;SDS011;57023;52.218;5.158;2023-06-22T11:51:47;10.60;;;7.93;;
69754;SDS011;57023;52.218;5.158;2023-06-22T11:54:12;11.57;;;8.37;;
69754;SDS011;57023;52.218;5.158;2023-06-22T11:56:38;9.37;;;8.27;;
69754;SDS011;57023;52.218;5.158;2023-06-22T11:59:03;11.37;;;9.10;;
69754;SDS011;57023;52.218;5.158;2023-06-22T12:01:28;15.67;;;9.83;;
69754;SDS011;57023;52.218;5.158;2023-06-22T12:03:54;11.70;;;9.60;;
69754;SDS011;57023;52.218;5.158;2023-06-22T12:06:19;12.37;;;10.27;;
69754;SDS011;57023;52.218;5.158;2023-06-22T12:08:44;11.43;;;9.43;;
69754;SDS011;57023;52.218;5.158;2023-06-22T12:11:10;13.97;;;10.70;;
69754;SDS011;57023;52.218;5.158;2023-06-22T12:13:35;12.80;;;10.67;;
69754;SDS011;57023;52.218;5.158;2023-06-22T12:16:00;11.87;;;9.87;;
69754;SDS011;57023;52.218;5.158;2023-06-22T12:18:26;14.77;;;11.17;;
69754;SDS011;57023;52.218;5.158;2023-06-22T12:20:51;12.77;;;10.60;;
69754;SDS011;57023;52.218;5.158;2023-06-22T12:23:16;13.43;;;10.70;;
69754;SDS011;57023;52.218;5.158;2023-06-22T12:25:44;15.60;;;12.67;;
69754;SDS011;57023;52.218;5.158;2023-06-22T12:28:10;14.45;;;11.63;;
69754;SDS011;57023;52.218;5.158;2023-06-22T12:30:35;14.20;;;12.03;;
69754;SDS011;57023;52.218;5.158;2023-06-22T12:33:00;14.97;;;12.83;;
69754;SDS011;57023;52.218;5.158;2023-06-22T12:35:26;17.07;;;13.27;;
69754;SDS011;57023;52.218;5.158;2023-06-22T12:37:51;16.23;;;13.27;;
69754;SDS011;57023;52.218;5.158;2023-06-22T12:40:16;15.23;;;13.13;;
69754;SDS011;57023;52.218;5.158;2023-06-22T12:42:42;14.83;;;12.37;;
69754;SDS011;57023;52.218;5.158;2023-06-22T12:45:09;15.07;;;12.43;;
69754;SDS011;57023;52.218;5.158;2023-06-22T12:47:35;13.93;;;11.93;;
69754;SDS011;57023;52.218;5.158;2023-06-22T12:50:00;15.93;;;12.87;;
69754;SDS011;57023;52.218;5.158;2023-06-22T12:52:25;14.73;;;12.63;;
69754;SDS011;57023;52.218;5.158;2023-06-22T12:54:51;14.03;;;12.10;;
69754;SDS011;57023;52.218;5.158;2023-06-22T12:57:17;14.98;;;11.38;;
69754;SDS011;57023;52.218;5.158;2023-06-22T12:59:44;13.23;;;10.68;;
69754;SDS011;57023;52.218;5.158;2023-06-22T13:02:09;14.53;;;10.23;;
69754;SDS011;57023;52.218;5.158;2023-06-22T13:04:35;11.37;;;9.67;;
69754;SDS011;57023;52.218;5.158;2023-06-22T13:07:00;12.27;;;9.93;;
69754;SDS011;57023;52.218;5.158;2023-06-22T13:09:25;12.63;;;9.30;;
69754;SDS011;57023;52.218;5.158;2023-06-22T13:11:51;11.63;;;8.97;;
69754;SDS011;57023;52.218;5.158;2023-06-22T13:16:43;13.57;;;8.53;;
69754;SDS011;57023;52.218;5.158;2023-06-22T13:19:08;10.43;;;8.10;;
69754;SDS011;57023;52.218;5.158;2023-06-22T13:21:33;14.60;;;8.23;;
69754;SDS011;57023;52.218;5.158;2023-06-22T13:23:59;10.83;;;8.67;;
69754;SDS011;57023;52.218;5.158;2023-06-22T13:26:24;10.60;;;8.47;;
69754;SDS011;57023;52.218;5.158;2023-06-22T13:28:50;12.03;;;8.60;;
69754;SDS011;57023;52.218;5.158;2023-06-22T13:31:15;11.03;;;9.33;;
69754;SDS011;57023;52.218;5.158;2023-06-22T13:33:40;13.43;;;8.93;;
69754;SDS011;57023;52.218;5.158;2023-06-22T13:36:06;11.07;;;9.23;;
69754;SDS011;57023;52.218;5.158;2023-06-22T13:38:32;13.00;;;9.65;;
69754;SDS011;57023;52.218;5.158;2023-06-22T13:40:59;14.52;;;9.82;;
69754;SDS011;57023;52.218;5.158;2023-06-22T13:43:26;11.80;;;9.83;;
69754;SDS011;57023;52.218;5.158;2023-06-22T13:45:52;13.90;;;10.18;;
69754;SDS011;57023;52.218;5.158;2023-06-22T13:48:17;12.37;;;9.77;;
69754;SDS011;57023;52.218;5.158;2023-06-22T13:50:43;14.97;;;10.80;;
69754;SDS011;57023;52.218;5.158;2023-06-22T13:53:08;12.20;;;10.82;;
69754;SDS011;57023;52.218;5.158;2023-06-22T13:55:33;14.57;;;10.37;;
69754;SDS011;57023;52.218;5.158;2023-06-22T13:57:59;13.90;;;10.37;;
69754;SDS011;57023;52.218;5.158;2023-06-22T14:00:24;14.07;;;10.32;;
69754;SDS011;57023;52.218;5.158;2023-06-22T14:02:49;12.63;;;9.73;;
69754;SDS011;57023;52.218;5.158;2023-06-22T14:05:15;11.88;;;9.95;;
69754;SDS011;57023;52.218;5.158;2023-06-22T14:07:41;13.30;;;10.57;;
69754;SDS011;57023;52.218;5.158;2023-06-22T14:10:06;13.95;;;11.02;;
69754;SDS011;57023;52.218;5.158;2023-06-22T14:12:32;15.67;;;11.60;;
69754;SDS011;57023;52.218;5.158;2023-06-22T14:14:57;13.33;;;11.80;;
69754;SDS011;57023;52.218;5.158;2023-06-22T14:17:22;14.40;;;11.80;;
69754;SDS011;57023;52.218;5.158;2023-06-22T14:19:50;15.80;;;12.43;;
69754;SDS011;57023;52.218;5.158;2023-06-22T14:22:17;16.52;;;13.00;;
69754;SDS011;57023;52.218;5.158;2023-06-22T14:24:43;16.33;;;13.70;;
69754;SDS011;57023;52.218;5.158;2023-06-22T14:27:09;16.15;;;13.02;;
69754;SDS011;57023;52.218;5.158;2023-06-22T14:29:34;15.93;;;13.87;;
69754;SDS011;57023;52.218;5.158;2023-06-22T14:32:00;18.73;;;14.33;;